createdAt,value
2023-05-04T00:00:55.928Z,29.10
2023-05-04T00:03:43.139Z,28.90
2023-05-04T00:06:36.719Z,29.10
2023-05-04T00:10:05.633Z,27.50
2023-05-04T00:13:14.317Z,27.60
2023-05-04T00:16:04.187Z,25.60
2023-05-04T00:19:06.305Z,26.70
2023-05-04T00:21:48.269Z,27.00
2023-05-04T00:24:37.302Z,25.80
2023-05-04T00:27:42.320Z,26.50
2023-05-04T00:30:41.118Z,26.20
2023-05-04T00:33:33.681Z,25.70
2023-05-04T00:36:27.612Z,28.00
2023-05-04T00:39:08.821Z,26.80
2023-05-04T00:42:19.698Z,28.40
2023-05-04T00:45:10.863Z,27.40
2023-05-04T00:48:39.514Z,25.80
2023-05-04T00:52:10.557Z,29.00
2023-05-04T00:54:57.904Z,27.30
2023-05-04T00:58:29.766Z,29.10
2023-05-04T01:01:20.169Z,27.90
2023-05-04T01:04:51.789Z,28.60
2023-05-04T01:08:55.506Z,28.10
2023-05-04T01:12:29.579Z,26.50
2023-05-04T01:16:07.177Z,25.90
2023-05-04T01:19:11.518Z,25.80
2023-05-04T01:22:16.077Z,27.00
2023-05-04T01:25:34.805Z,27.80
2023-05-04T01:28:45.528Z,27.20
2023-05-04T01:31:57.027Z,29.40
2023-05-04T01:35:26.828Z,27.30
2023-05-04T01:38:32.931Z,30.10
2023-05-04T01:42:05.118Z,28.70
2023-05-04T01:45:37.118Z,28.40
2023-05-04T01:48:46.908Z,26.40
2023-05-04T01:51:43.146Z,25.20
2023-05-04T01:55:01.429Z,24.50
2023-05-04T01:57:56.935Z,27.20
2023-05-04T02:00:37.944Z,25.70
2023-05-04T02:03:49.217Z,26.30
2023-05-04T02:07:00.364Z,25.80
2023-05-04T02:09:36.286Z,25.00
2023-05-04T02:12:28.085Z,24.20
2023-05-04T02:15:28.485Z,23.80
2023-05-04T02:17:59.899Z,24.90
2023-05-04T02:21:29.015Z,24.60
2023-05-04T02:24:43.213Z,25.20
2023-05-04T02:27:25.409Z,24.50
2023-05-04T02:29:59.104Z,24.90
2023-05-04T02:32:27.620Z,23.50
2023-05-04T02:35:24.623Z,23.30
2023-05-04T02:38:07.704Z,24.10
2023-05-04T02:40:38.057Z,22.70
2023-05-04T02:43:17.474Z,23.50
2023-05-04T02:46:33.030Z,24.40
2023-05-04T02:49:14.231Z,23.50
2023-05-04T02:52:05.549Z,23.40
2023-05-04T02:54:38.464Z,22.60
2023-05-04T02:57:20.333Z,24.80
2023-05-04T03:00:31.335Z,23.90
2023-05-04T03:03:17.007Z,22.20
2023-05-04T03:06:03.116Z,23.00
2023-05-04T03:08:36.907Z,25.70
2023-05-04T03:11:18.657Z,23.00
2023-05-04T03:14:49.909Z,23.80
2023-05-04T03:17:58.650Z,24.70
2023-05-04T03:20:46.356Z,23.40
2023-05-04T03:23:37.636Z,24.30
2023-05-04T03:26:16.141Z,20.70
2023-05-04T03:28:57.458Z,20.40
2023-05-04T03:31:28.865Z,16.80
2023-05-04T03:34:23.321Z,16.30
2023-05-04T03:37:16.847Z,14.70
2023-05-04T03:40:35.600Z,15.70
2023-05-04T03:43:37.916Z,15.70
2023-05-04T03:46:50.534Z,13.70
2023-05-04T03:49:46.048Z,13.90
2023-05-04T03:53:26.611Z,14.40
2023-05-04T03:56:58.207Z,13.80
2023-05-04T03:59:39.087Z,15.50
2023-05-04T04:02:34.589Z,16.40
2023-05-04T04:05:37.514Z,15.60
2023-05-04T04:08:50.252Z,16.10
2023-05-04T04:12:33.251Z,20.40
2023-05-04T04:16:22.224Z,25.50
2023-05-04T04:19:52.380Z,24.00
2023-05-04T04:23:13.286Z,21.40
2023-05-04T04:25:55.446Z,21.70
2023-05-04T04:29:44.349Z,21.80
2023-05-04T04:33:06.084Z,22.10
2023-05-04T04:36:38.004Z,23.10
2023-05-04T04:39:29.063Z,22.30
2023-05-04T04:42:14.973Z,24.10
2023-05-04T04:45:20.880Z,23.10
2023-05-04T04:48:45.217Z,22.20
2023-05-04T04:52:04.059Z,25.40
2023-05-04T04:54:52.746Z,29.20
2023-05-04T04:57:54.371Z,27.80
2023-05-04T05:01:23.577Z,28.60
2023-05-04T05:04:25.963Z,34.50
2023-05-04T05:07:47.754Z,36.90
2023-05-04T05:11:09.739Z,36.50
2023-05-04T05:14:54.095Z,34.20
2023-05-04T05:18:16.108Z,34.00
2023-05-04T05:21:06.520Z,34.10
2023-05-04T05:24:55.620Z,34.60
2023-05-04T05:28:09.701Z,32.40
2023-05-04T05:31:50.098Z,27.70
2023-05-04T05:35:39.145Z,25.90
2023-05-04T05:38:57.650Z,27.00
2023-05-04T05:41:44.861Z,26.60
2023-05-04T05:44:23.145Z,25.70
2023-05-04T05:47:52.331Z,25.60
2023-05-04T05:51:24.005Z,25.80
2023-05-04T05:54:28.189Z,24.50
2023-05-04T05:57:56.097Z,22.90
2023-05-04T06:01:32.492Z,23.60
2023-05-04T06:05:10.076Z,23.10
2023-05-04T06:07:56.217Z,22.40
2023-05-04T06:11:05.018Z,21.40
2023-05-04T06:14:42.604Z,22.10
2023-05-04T06:17:26.595Z,17.60
2023-05-04T06:20:46.363Z,17.90
2023-05-04T06:23:58.388Z,18.10
2023-05-04T06:27:28.730Z,16.40
2023-05-04T06:30:53.070Z,16.30
2023-05-04T06:33:59.476Z,15.50
2023-05-04T06:37:15.548Z,13.30
2023-05-04T06:40:15.795Z,10.60
2023-05-04T06:43:56.159Z,17.90
2023-05-04T06:47:14.934Z,23.50
2023-05-04T06:50:44.202Z,24.60
2023-05-04T06:54:13.407Z,26.30
2023-05-04T06:57:09.081Z,34.90
2023-05-04T06:59:52.600Z,30.50
2023-05-04T07:02:52.842Z,30.20
2023-05-04T07:05:57.538Z,16.60
2023-05-04T07:09:21.226Z,12.10
2023-05-04T07:13:07.474Z,10.20
2023-05-04T07:16:37.772Z,6.20
2023-05-04T07:20:00.126Z,7.20
2023-05-04T07:23:42.829Z,8.00
2023-05-04T07:27:13.282Z,6.90
2023-05-04T07:30:42.885Z,8.20
2023-05-04T07:34:33.870Z,7.40
2023-05-04T07:38:33.030Z,5.90
2023-05-04T07:42:16.305Z,5.40
2023-05-04T07:46:05.331Z,5.30
2023-05-04T07:49:47.138Z,5.40
2023-05-04T07:53:35.244Z,5.30
2023-05-04T07:57:24.539Z,4.70
2023-05-04T08:01:13.884Z,7.30
2023-05-04T08:05:03.358Z,4.90
2023-05-04T08:08:53.082Z,5.00
2023-05-04T08:12:34.121Z,5.40
2023-05-04T08:15:58.686Z,5.30
2023-05-04T08:19:47.856Z,5.60
2023-05-04T08:23:12.470Z,5.60
2023-05-04T08:27:06.580Z,5.40
2023-05-04T08:30:48.504Z,5.10
2023-05-04T08:33:38.738Z,5.00
2023-05-04T08:36:35.711Z,6.00
2023-05-04T08:39:12.408Z,4.60
2023-05-04T08:42:46.022Z,5.20
2023-05-04T08:46:34.533Z,5.20
2023-05-04T08:50:14.854Z,5.10
2023-05-04T08:54:03.988Z,4.70
2023-05-04T08:57:52.980Z,4.90
2023-05-04T09:01:31.476Z,4.30
2023-05-04T09:05:12.893Z,4.40
2023-05-04T09:09:02.870Z,4.40
2023-05-04T09:12:28.450Z,4.40
2023-05-04T09:16:20.255Z,4.10
2023-05-04T09:20:21.170Z,4.60
2023-05-04T09:24:10.219Z,4.70
2023-05-04T09:28:11.312Z,4.80
2023-05-04T09:32:00.306Z,5.00
2023-05-04T09:35:49.407Z,4.10
2023-05-04T09:39:31.366Z,4.40
2023-05-04T09:43:20.692Z,4.70
2023-05-04T09:47:11.386Z,4.30
2023-05-04T09:50:59.356Z,4.00
2023-05-04T09:54:46.323Z,4.10
2023-05-04T09:58:35.774Z,4.30
2023-05-04T10:02:24.933Z,3.90
2023-05-04T10:06:19.188Z,4.70
2023-05-04T10:10:08.192Z,4.10
2023-05-04T10:13:50.370Z,4.10
2023-05-04T10:21:53.413Z,3.90
2023-05-04T10:25:45.519Z,4.20
2023-05-04T10:29:37.216Z,4.20
2023-05-04T10:33:27.078Z,5.40
2023-05-04T10:37:17.095Z,4.00
2023-05-04T10:41:18.364Z,4.10
2023-05-04T10:45:07.834Z,4.60
2023-05-04T10:48:49.248Z,4.50
2023-05-04T10:52:48.647Z,4.00
2023-05-04T10:56:43.343Z,3.60
2023-05-04T11:00:38.052Z,4.10
2023-05-04T11:04:27.240Z,3.70
2023-05-04T11:08:18.714Z,3.90
2023-05-04T11:12:04.103Z,4.20
2023-05-04T11:15:54.071Z,3.90
2023-05-04T11:19:48.728Z,4.10
2023-05-04T11:23:27.840Z,3.80
2023-05-04T11:27:25.837Z,4.10
2023-05-04T11:30:50.409Z,3.60
2023-05-04T11:34:19.365Z,3.70
2023-05-04T11:38:06.645Z,4.00
2023-05-04T11:41:40.757Z,4.80
2023-05-04T11:45:12.633Z,3.80
2023-05-04T11:48:51.565Z,3.80
2023-05-04T11:52:47.172Z,4.00
2023-05-04T11:56:10.128Z,3.90
2023-05-04T11:59:39.150Z,3.80
2023-05-04T12:03:21.435Z,4.20
2023-05-04T12:07:10.837Z,4.50
2023-05-04T12:10:29.745Z,3.90
2023-05-04T12:14:18.641Z,4.30
2023-05-04T12:18:07.804Z,4.30
2023-05-04T12:21:59.557Z,4.00
2023-05-04T12:25:50.987Z,3.70
2023-05-04T12:29:29.025Z,4.60
2023-05-04T12:33:18.083Z,4.10
2023-05-04T12:37:07.097Z,4.40
2023-05-04T12:40:55.635Z,4.20
2023-05-04T12:44:45.177Z,4.50
2023-05-04T12:48:29.133Z,4.40
2023-05-04T12:52:14.239Z,3.90
2023-05-04T12:55:44.371Z,4.20
2023-05-04T12:59:34.936Z,3.90
2023-05-04T13:03:02.628Z,4.20
2023-05-04T13:06:51.959Z,3.70
2023-05-04T13:10:13.501Z,3.40
2023-05-04T13:13:46.505Z,3.50
2023-05-04T13:17:28.855Z,4.10
2023-05-04T13:21:18.476Z,4.00
2023-05-04T13:25:01.440Z,4.40
2023-05-04T13:28:25.433Z,3.80
2023-05-04T13:32:15.004Z,3.50
2023-05-04T13:36:02.194Z,3.80
2023-05-04T13:39:11.352Z,3.50
2023-05-04T13:42:33.562Z,3.90
2023-05-04T13:46:25.220Z,7.90
2023-05-04T13:49:45.491Z,3.60
2023-05-04T13:53:11.320Z,5.20
2023-05-04T13:56:46.803Z,3.40
2023-05-04T14:00:29.205Z,3.60
2023-05-04T14:03:55.532Z,3.70
2023-05-04T14:07:11.493Z,3.20
2023-05-04T14:10:14.195Z,3.60
2023-05-04T14:13:43.312Z,3.20
2023-05-04T14:17:19.850Z,3.50
2023-05-04T14:20:20.586Z,3.60
2023-05-04T14:24:08.798Z,3.30
2023-05-04T14:27:49.131Z,5.20
2023-05-04T14:31:12.193Z,3.70
2023-05-04T14:34:43.290Z,7.80
2023-05-04T14:38:32.601Z,3.60
2023-05-04T14:42:22.149Z,3.60
2023-05-04T14:45:21.505Z,3.50
2023-05-04T14:48:48.748Z,3.60
2023-05-04T14:52:17.229Z,3.60
2023-05-04T14:55:42.318Z,3.80
2023-05-04T14:59:31.484Z,3.90
2023-05-04T15:03:20.705Z,3.70
2023-05-04T15:07:10.492Z,3.50
2023-05-04T15:10:59.994Z,3.40
2023-05-04T15:14:31.350Z,3.40
2023-05-04T15:18:20.867Z,3.40
2023-05-04T15:22:04.006Z,3.60
2023-05-04T15:25:46.023Z,3.90
2023-05-04T15:29:27.348Z,4.40
2023-05-04T15:33:10.548Z,4.70
2023-05-04T15:37:00.229Z,3.70
2023-05-04T15:40:43.538Z,3.60
2023-05-04T15:44:25.907Z,3.40
2023-05-04T15:47:55.229Z,4.50
2023-05-04T15:51:44.944Z,3.60
2023-05-04T15:55:28.052Z,4.30
2023-05-04T15:59:09.019Z,3.40
2023-05-04T16:02:51.753Z,3.70
2023-05-04T16:06:41.016Z,3.70
2023-05-04T16:09:30.172Z,4.10
2023-05-04T16:12:51.712Z,10.80
2023-05-04T16:16:40.785Z,4.20
2023-05-04T16:20:30.198Z,3.60
2023-05-04T16:24:12.526Z,3.50
2023-05-04T16:27:54.500Z,3.60
2023-05-04T16:31:36.305Z,3.80
2023-05-04T16:35:08.445Z,5.80
2023-05-04T16:38:42.668Z,4.00
2023-05-04T16:41:56.924Z,3.60
2023-05-04T16:45:46.645Z,4.40
2023-05-04T16:49:21.333Z,4.20
2023-05-04T16:52:05.503Z,3.80
2023-05-04T16:55:17.074Z,4.20
2023-05-04T16:58:31.121Z,3.90
2023-05-04T17:01:36.356Z,4.10
2023-05-04T17:04:55.066Z,3.50
2023-05-04T17:07:29.069Z,3.40
2023-05-04T17:11:00.671Z,3.90
2023-05-04T17:14:49.619Z,3.10
2023-05-04T17:18:38.626Z,3.50
2023-05-04T17:22:22.420Z,5.90
2023-05-04T17:26:04.607Z,10.90
2023-05-04T17:28:59.064Z,4.20
2023-05-04T17:32:15.360Z,4.00
2023-05-04T17:34:50.322Z,4.40
2023-05-04T17:38:02.027Z,5.40
2023-05-04T17:41:51.396Z,5.10
2023-05-04T17:45:41.368Z,7.10
2023-05-04T17:49:21.391Z,8.20
2023-05-04T17:53:04.322Z,8.30
2023-05-04T17:56:22.041Z,7.80
2023-05-04T17:59:39.406Z,10.30
2023-05-04T18:03:05.328Z,30.20
2023-05-04T18:06:53.674Z,13.10
2023-05-04T18:09:56.405Z,9.50
2023-05-04T18:13:22.862Z,10.50
2023-05-04T18:17:04.867Z,14.60
2023-05-04T18:20:31.937Z,11.90
2023-05-04T18:24:03.958Z,13.00
2023-05-04T18:27:37.553Z,12.00
2023-05-04T18:31:18.113Z,10.10
2023-05-04T18:34:06.370Z,13.90
2023-05-04T18:36:35.246Z,14.00
2023-05-04T18:39:28.026Z,24.90
2023-05-04T18:42:05.196Z,38.70
2023-05-04T18:45:48.139Z,23.80
2023-05-04T18:48:25.320Z,15.50
2023-05-04T18:51:47.343Z,11.70
2023-05-04T18:55:19.630Z,12.90
2023-05-04T18:58:27.720Z,12.70
2023-05-04T19:02:11.365Z,27.10
2023-05-04T19:05:17.668Z,59.50
2023-05-04T19:08:45.735Z,43.80
2023-05-04T19:12:14.214Z,40.20
2023-05-04T19:15:45.716Z,33.90
2023-05-04T19:18:57.635Z,32.40
2023-05-04T19:21:55.609Z,25.80
2023-05-04T19:24:38.859Z,11.60
2023-05-04T19:27:49.670Z,9.00
2023-05-04T19:31:31.516Z,14.20
2023-05-04T19:34:17.991Z,10.00
2023-05-04T19:37:41.579Z,9.40
2023-05-04T19:41:06.257Z,8.50
2023-05-04T19:44:07.979Z,7.70
2023-05-04T19:47:17.219Z,8.50
2023-05-04T19:50:25.736Z,7.10
2023-05-04T19:53:15.305Z,10.30
2023-05-04T19:56:23.108Z,12.90
2023-05-04T19:59:57.064Z,8.10
2023-05-04T20:03:16.025Z,5.10
2023-05-04T20:06:44.019Z,5.60
2023-05-04T20:10:33.525Z,5.10
2023-05-04T20:13:39.308Z,5.40
2023-05-04T20:17:04.153Z,11.40
2023-05-04T20:20:34.201Z,15.80
2023-05-04T20:24:09.033Z,16.00
2023-05-04T20:27:18.040Z,21.00
2023-05-04T20:30:28.188Z,27.70
2023-05-04T20:33:49.250Z,24.60
2023-05-04T20:36:19.737Z,29.20
2023-05-04T20:39:24.999Z,39.90
2023-05-04T20:42:58.211Z,35.20
2023-05-04T20:45:32.704Z,34.20
2023-05-04T20:48:59.492Z,31.90
2023-05-04T20:51:58.997Z,33.10
2023-05-04T20:54:48.661Z,36.90
2023-05-04T20:58:00.851Z,35.80
2023-05-04T21:01:02.642Z,33.30
2023-05-04T21:03:52.947Z,31.10
2023-05-04T21:07:12.260Z,36.90
2023-05-04T21:10:17.276Z,34.90
2023-05-04T21:13:49.067Z,35.30
2023-05-04T21:17:31.923Z,29.90
2023-05-04T21:21:03.961Z,29.90
2023-05-04T21:24:33.117Z,29.30
2023-05-04T21:28:08.096Z,28.20
2023-05-04T21:30:57.126Z,28.90
2023-05-04T21:34:29.633Z,32.80
2023-05-04T21:37:51.533Z,25.70
2023-05-04T21:41:27.219Z,22.50
2023-05-04T21:45:00.198Z,18.60
2023-05-04T21:48:31.730Z,20.40
2023-05-04T21:52:20.926Z,22.80
2023-05-04T21:55:23.850Z,22.70
2023-05-04T21:58:41.005Z,22.20
2023-05-04T22:02:22.591Z,17.50
2023-05-04T22:05:54.068Z,17.10
2023-05-04T22:09:43.190Z,17.50
2023-05-04T22:13:17.057Z,19.10
2023-05-04T22:17:05.244Z,20.90
2023-05-04T22:20:47.131Z,20.00
2023-05-04T22:23:35.614Z,20.80
2023-05-04T22:26:58.872Z,21.80
2023-05-04T22:30:08.950Z,22.50
2023-05-04T22:33:18.830Z,25.30
2023-05-04T22:36:39.644Z,23.80
2023-05-04T22:40:08.487Z,20.50
2023-05-04T22:43:25.418Z,20.30
2023-05-04T22:46:31.363Z,20.20
2023-05-04T22:50:00.531Z,20.60
2023-05-04T22:53:12.007Z,19.10
2023-05-04T22:56:33.120Z,19.00
2023-05-04T22:59:49.083Z,18.10
2023-05-04T23:03:12.419Z,17.90
2023-05-04T23:06:39.390Z,17.50
2023-05-04T23:10:14.467Z,16.50
2023-05-04T23:13:28.132Z,16.50
2023-05-04T23:17:16.998Z,16.20
2023-05-04T23:20:53.725Z,15.80
2023-05-04T23:24:35.215Z,15.10
2023-05-04T23:28:15.294Z,15.50
2023-05-04T23:31:46.653Z,15.70
2023-05-04T23:35:30.595Z,16.00
2023-05-04T23:38:40.984Z,15.90
2023-05-04T23:41:31.589Z,15.80
2023-05-04T23:45:10.288Z,15.30
2023-05-04T23:53:10.291Z,14.00
2023-05-04T23:57:12.879Z,14.00
